createdAt,value
2023-04-17T00:00:39.186Z,4.22
2023-04-17T00:03:07.599Z,4.07
2023-04-17T00:05:36.414Z,4.15
2023-04-17T00:08:04.662Z,4.40
2023-04-17T00:10:34.788Z,3.95
2023-04-17T00:13:03.284Z,4.25
2023-04-17T00:15:31.369Z,4.15
2023-04-17T00:17:59.840Z,4.38
2023-04-17T00:20:28.610Z,5.00
2023-04-17T00:22:56.866Z,4.10
2023-04-17T00:25:25.383Z,4.53
2023-04-17T00:27:53.713Z,4.43
2023-04-17T00:30:21.938Z,5.85
2023-04-17T00:32:50.121Z,6.13
2023-04-17T00:35:18.512Z,10.85
2023-04-17T00:37:46.670Z,12.50
2023-04-17T00:40:15.132Z,13.63
2023-04-17T00:42:43.511Z,11.73
2023-04-17T00:45:11.657Z,9.88
2023-04-17T00:47:40.409Z,6.35
2023-04-17T00:50:09.358Z,5.85
2023-04-17T00:52:37.428Z,7.25
2023-04-17T00:55:06.176Z,7.97
2023-04-17T00:57:35.486Z,11.07
2023-04-17T01:00:03.934Z,19.80
2023-04-17T01:02:32.468Z,20.02
2023-04-17T01:05:00.838Z,17.20
2023-04-17T01:07:30.195Z,15.50
2023-04-17T01:09:58.547Z,17.02
2023-04-17T01:12:27.056Z,16.33
2023-04-17T01:14:56.529Z,14.43
2023-04-17T01:17:26.056Z,13.18
2023-04-17T01:19:55.175Z,11.68
2023-04-17T01:22:23.475Z,11.05
2023-04-17T01:24:56.422Z,10.15
2023-04-17T01:27:27.516Z,10.77
2023-04-17T01:29:56.378Z,11.38
2023-04-17T01:32:24.491Z,10.38
2023-04-17T01:34:52.920Z,12.57
2023-04-17T01:37:21.093Z,11.05
2023-04-17T01:39:49.663Z,12.90
2023-04-17T01:42:17.756Z,13.88
2023-04-17T01:44:45.955Z,11.73
2023-04-17T01:47:14.532Z,11.57
2023-04-17T01:49:42.594Z,9.93
2023-04-17T01:52:10.996Z,6.90
2023-04-17T01:54:39.164Z,6.45
2023-04-17T01:57:07.222Z,6.25
2023-04-17T01:59:35.551Z,5.60
2023-04-17T02:02:04.352Z,6.22
2023-04-17T02:04:32.887Z,5.03
2023-04-17T02:07:00.953Z,5.88
2023-04-17T02:09:29.098Z,6.05
2023-04-17T02:11:57.340Z,4.93
2023-04-17T02:14:25.878Z,5.40
2023-04-17T02:16:55.469Z,5.22
2023-04-17T02:19:23.793Z,5.78
2023-04-17T02:21:52.233Z,6.78
2023-04-17T02:24:20.490Z,4.80
2023-04-17T02:26:48.561Z,5.85
2023-04-17T02:29:16.827Z,7.75
2023-04-17T02:31:45.103Z,7.70
2023-04-17T02:34:13.395Z,6.93
2023-04-17T02:36:42.543Z,6.53
2023-04-17T02:39:10.970Z,7.07
2023-04-17T02:41:40.939Z,7.45
2023-04-17T02:44:10.381Z,6.97
2023-04-17T02:46:38.922Z,7.30
2023-04-17T02:49:09.473Z,6.43
2023-04-17T02:51:38.672Z,5.65
2023-04-17T02:54:06.936Z,5.15
2023-04-17T02:56:35.119Z,4.85
2023-04-17T02:59:03.586Z,4.72
2023-04-17T03:01:31.960Z,4.65
2023-04-17T03:04:00.434Z,4.53
2023-04-17T03:06:29.052Z,5.03
2023-04-17T03:08:57.542Z,5.47
2023-04-17T03:11:25.880Z,4.45
2023-04-17T03:13:54.164Z,5.03
2023-04-17T03:16:23.261Z,4.95
2023-04-17T03:18:51.771Z,5.25
2023-04-17T03:21:20.641Z,4.97
2023-04-17T03:23:50.403Z,5.68
2023-04-17T03:26:21.128Z,4.95
2023-04-17T03:28:49.623Z,6.15
2023-04-17T03:31:18.126Z,5.38
2023-04-17T03:33:46.508Z,5.82
2023-04-17T03:36:14.714Z,5.95
2023-04-17T03:38:43.195Z,5.70
2023-04-17T03:41:11.421Z,5.65
2023-04-17T03:43:39.771Z,5.05
2023-04-17T03:46:10.366Z,4.82
2023-04-17T03:48:39.943Z,5.88
2023-04-17T03:51:08.216Z,4.97
2023-04-17T03:53:37.440Z,5.10
2023-04-17T03:58:40.725Z,5.68
2023-04-17T04:01:11.768Z,6.10
2023-04-17T04:03:49.048Z,6.03
2023-04-17T04:06:17.710Z,5.30
2023-04-17T04:08:45.959Z,6.60
2023-04-17T04:11:14.839Z,5.40
2023-04-17T04:13:43.069Z,5.25
2023-04-17T04:16:11.407Z,6.78
2023-04-17T04:18:41.521Z,6.15
2023-04-17T04:21:09.852Z,6.25
2023-04-17T04:23:41.379Z,6.70
2023-04-17T04:26:12.277Z,7.45
2023-04-17T04:28:49.846Z,7.47
2023-04-17T04:31:32.722Z,6.22
2023-04-17T04:34:03.511Z,7.15
2023-04-17T04:36:31.751Z,8.45
2023-04-17T04:39:17.360Z,7.53
2023-04-17T04:41:45.717Z,7.30
2023-04-17T04:44:15.130Z,6.85
2023-04-17T04:46:44.798Z,8.88
2023-04-17T04:49:14.006Z,7.68
2023-04-17T04:51:42.584Z,7.85
2023-04-17T04:54:11.224Z,9.10
2023-04-17T04:56:49.790Z,8.27
2023-04-17T04:59:18.324Z,9.43
2023-04-17T05:01:56.025Z,10.10
2023-04-17T05:04:25.050Z,8.50
2023-04-17T05:06:56.934Z,9.13
2023-04-17T05:09:25.358Z,9.15
2023-04-17T05:11:56.922Z,7.60
2023-04-17T05:14:25.427Z,7.28
2023-04-17T05:16:53.588Z,9.48
2023-04-17T05:19:22.207Z,8.13
2023-04-17T05:22:03.643Z,8.05
2023-04-17T05:24:35.647Z,7.45
2023-04-17T05:27:04.029Z,9.48
2023-04-17T05:29:32.189Z,10.13
2023-04-17T05:32:00.506Z,9.93
2023-04-17T05:34:49.240Z,8.07
2023-04-17T05:37:22.407Z,7.57
2023-04-17T05:39:50.771Z,8.38
2023-04-17T05:42:18.958Z,7.63
2023-04-17T05:44:47.270Z,7.65
2023-04-17T05:47:15.735Z,7.45
2023-04-17T05:49:43.775Z,7.55
2023-04-17T05:52:12.303Z,7.40
2023-04-17T05:57:12.425Z,7.75
2023-04-17T05:59:40.831Z,7.97
2023-04-17T06:02:10.540Z,8.10
2023-04-17T06:04:39.192Z,7.75
2023-04-17T06:07:07.771Z,7.43
2023-04-17T06:09:37.400Z,8.57
2023-04-17T06:12:06.238Z,9.00
2023-04-17T06:14:34.849Z,8.20
2023-04-17T06:17:07.474Z,8.85
2023-04-17T06:19:35.869Z,9.77
2023-04-17T06:22:04.463Z,10.82
2023-04-17T06:24:32.697Z,12.40
2023-04-17T06:27:00.886Z,11.70
2023-04-17T06:29:29.233Z,10.75
2023-04-17T06:31:57.558Z,10.35
2023-04-17T06:34:26.772Z,11.43
2023-04-17T06:36:57.134Z,11.68
2023-04-17T06:39:25.411Z,10.65
2023-04-17T06:41:54.122Z,10.50
2023-04-17T06:44:27.993Z,11.82
2023-04-17T06:46:56.208Z,11.63
2023-04-17T06:49:25.017Z,12.55
2023-04-17T06:51:53.098Z,12.13
2023-04-17T06:54:21.292Z,13.52
2023-04-17T06:56:49.432Z,14.10
2023-04-17T06:59:18.589Z,13.70
2023-04-17T07:01:46.875Z,16.20
2023-04-17T07:04:15.276Z,13.70
2023-04-17T07:06:43.459Z,13.77
2023-04-17T07:09:12.067Z,15.05
2023-04-17T07:11:40.397Z,12.95
2023-04-17T07:14:09.880Z,12.57
2023-04-17T07:16:39.251Z,13.50
2023-04-17T07:19:07.430Z,13.00
2023-04-17T07:21:35.882Z,12.27
2023-04-17T07:24:04.264Z,13.00
2023-04-17T07:26:32.394Z,13.45
2023-04-17T07:29:00.665Z,13.68
2023-04-17T07:31:29.897Z,12.50
2023-04-17T07:33:58.114Z,12.80
2023-04-17T07:36:26.269Z,12.02
2023-04-17T07:38:54.545Z,15.43
2023-04-17T07:41:22.896Z,16.17
2023-04-17T07:43:51.272Z,18.35
2023-04-17T07:46:19.427Z,21.60
2023-04-17T07:48:47.871Z,20.60
2023-04-17T07:51:16.042Z,24.30
2023-04-17T07:53:44.293Z,23.73
2023-04-17T07:56:12.732Z,25.08
2023-04-17T07:58:41.040Z,24.75
2023-04-17T08:01:09.193Z,22.15
2023-04-17T08:03:37.598Z,19.90
2023-04-17T08:06:06.447Z,19.73
2023-04-17T08:08:34.559Z,19.50
2023-04-17T08:11:02.772Z,21.60
2023-04-17T08:13:31.855Z,19.48
2023-04-17T08:15:59.965Z,17.10
2023-04-17T08:18:28.223Z,15.80
2023-04-17T08:20:56.666Z,15.15
2023-04-17T08:23:25.110Z,15.48
2023-04-17T08:25:53.315Z,15.50
2023-04-17T08:28:21.613Z,14.23
2023-04-17T08:30:49.949Z,14.05
2023-04-17T08:33:18.617Z,16.95
2023-04-17T08:35:47.063Z,17.30
2023-04-17T08:38:15.858Z,15.35
2023-04-17T08:40:44.561Z,13.13
2023-04-17T08:43:17.134Z,12.00
2023-04-17T08:45:49.323Z,11.90
2023-04-17T08:50:48.728Z,11.57
2023-04-17T08:53:20.565Z,12.20
2023-04-17T08:55:49.156Z,13.27
2023-04-17T08:58:17.372Z,12.50
2023-04-17T09:00:46.510Z,12.63
2023-04-17T09:03:15.782Z,12.18
2023-04-17T09:05:44.715Z,12.98
2023-04-17T09:08:18.225Z,12.40
2023-04-17T09:10:48.455Z,11.65
2023-04-17T09:13:20.046Z,13.52
2023-04-17T09:16:04.483Z,12.77
2023-04-17T09:18:34.663Z,14.30
2023-04-17T09:21:04.250Z,13.35
2023-04-17T09:23:47.474Z,13.38
2023-04-17T09:26:18.356Z,13.07
2023-04-17T09:29:12.540Z,14.10
2023-04-17T09:31:44.515Z,16.10
2023-04-17T09:34:13.883Z,14.50
2023-04-17T09:36:43.915Z,14.32
2023-04-17T09:39:20.064Z,15.98
2023-04-17T09:41:48.452Z,15.00
2023-04-17T09:44:28.426Z,16.20
2023-04-17T09:46:57.272Z,16.38
2023-04-17T09:49:43.031Z,18.80
2023-04-17T09:52:14.666Z,18.77
2023-04-17T09:54:43.729Z,17.92
2023-04-17T09:57:12.680Z,21.08
2023-04-17T09:59:46.151Z,19.55
2023-04-17T10:02:16.024Z,17.40
2023-04-17T10:04:45.737Z,16.90
2023-04-17T10:07:14.267Z,18.77
2023-04-17T10:09:43.582Z,19.25
2023-04-17T10:12:15.026Z,17.70
2023-04-17T10:14:46.136Z,16.23
2023-04-17T10:17:24.494Z,15.40
2023-04-17T10:19:53.046Z,14.05
2023-04-17T10:22:21.136Z,14.80
2023-04-17T10:24:50.802Z,14.13
2023-04-17T10:27:27.835Z,15.40
2023-04-17T10:30:00.817Z,13.70
2023-04-17T10:32:30.450Z,13.98
2023-04-17T10:35:00.918Z,14.00
2023-04-17T10:37:47.811Z,17.63
2023-04-17T10:40:21.813Z,15.43
2023-04-17T10:43:11.509Z,14.20
2023-04-17T10:46:10.605Z,13.18
2023-04-17T10:48:53.000Z,13.30
2023-04-17T10:51:24.288Z,13.68
2023-04-17T10:53:59.190Z,13.60
2023-04-17T10:56:40.379Z,13.60
2023-04-17T10:59:13.947Z,12.60
2023-04-17T11:01:51.649Z,12.82
2023-04-17T11:04:23.874Z,12.25
2023-04-17T11:06:52.303Z,13.60
2023-04-17T11:09:28.541Z,11.15
2023-04-17T11:12:00.709Z,14.35
2023-04-17T11:14:29.086Z,12.88
2023-04-17T11:16:57.311Z,11.85
2023-04-17T11:19:26.593Z,11.00
2023-04-17T11:21:56.477Z,10.70
2023-04-17T11:24:29.029Z,12.00
2023-04-17T11:26:59.102Z,11.32
2023-04-17T11:29:28.112Z,11.80
2023-04-17T11:31:57.949Z,12.07
2023-04-17T11:34:27.171Z,10.82
2023-04-17T11:36:58.287Z,13.77
2023-04-17T11:39:31.489Z,13.07
2023-04-17T11:42:00.254Z,13.77
2023-04-17T11:44:32.643Z,15.88
2023-04-17T11:47:02.302Z,10.93
2023-04-17T11:49:32.459Z,11.00
2023-04-17T11:52:02.148Z,11.52
2023-04-17T11:54:38.515Z,12.00
2023-04-17T11:57:11.395Z,11.98
2023-04-17T11:59:41.686Z,9.95
2023-04-17T12:02:10.515Z,10.15
2023-04-17T12:04:40.054Z,10.13
2023-04-17T12:07:09.259Z,9.38
2023-04-17T12:09:37.458Z,10.65
2023-04-17T12:12:07.902Z,9.88
2023-04-17T12:14:36.575Z,9.27
2023-04-17T12:17:04.742Z,7.55
2023-04-17T12:19:33.103Z,9.23
2023-04-17T12:22:01.228Z,8.75
2023-04-17T12:24:29.398Z,9.50
2023-04-17T12:26:57.702Z,9.57
2023-04-17T12:29:36.766Z,10.15
2023-04-17T12:32:11.223Z,8.27
2023-04-17T12:34:39.465Z,10.70
2023-04-17T12:37:07.687Z,8.30
2023-04-17T12:39:36.017Z,10.52
2023-04-17T12:42:04.347Z,10.95
2023-04-17T12:44:32.649Z,7.53
2023-04-17T12:47:00.880Z,7.38
2023-04-17T12:49:29.096Z,8.63
2023-04-17T12:51:57.520Z,10.57
2023-04-17T12:54:25.774Z,10.05
2023-04-17T12:56:54.419Z,8.55
2023-04-17T12:59:22.696Z,20.15
2023-04-17T13:01:51.105Z,11.52
2023-04-17T13:04:20.075Z,10.88
2023-04-17T13:06:48.944Z,9.70
2023-04-17T13:09:17.023Z,7.10
2023-04-17T13:11:45.257Z,7.45
2023-04-17T13:14:13.970Z,6.95
2023-04-17T13:16:42.365Z,8.60
2023-04-17T13:19:10.925Z,7.10
2023-04-17T13:21:39.474Z,8.02
2023-04-17T13:24:07.884Z,7.72
2023-04-17T13:26:37.294Z,7.07
2023-04-17T13:29:05.532Z,7.03
2023-04-17T13:31:33.887Z,7.53
2023-04-17T13:34:04.688Z,6.50
2023-04-17T13:36:33.148Z,7.75
2023-04-17T13:39:01.297Z,7.85
2023-04-17T13:41:29.519Z,8.57
2023-04-17T13:43:57.872Z,9.48
2023-04-17T13:46:26.117Z,8.45
2023-04-17T13:48:54.459Z,7.93
2023-04-17T13:51:22.821Z,8.38
2023-04-17T13:53:51.244Z,8.63
2023-04-17T13:56:19.407Z,8.43
2023-04-17T13:58:47.682Z,8.80
2023-04-17T14:01:16.130Z,8.73
2023-04-17T14:03:46.115Z,13.43
2023-04-17T14:06:15.238Z,10.15
2023-04-17T14:08:44.443Z,14.25
2023-04-17T14:11:13.450Z,9.55
2023-04-17T14:13:41.792Z,7.82
2023-04-17T14:16:10.128Z,8.52
2023-04-17T14:18:38.539Z,21.58
2023-04-17T14:21:07.019Z,15.07
2023-04-17T14:23:35.172Z,35.92
2023-04-17T14:26:03.492Z,31.27
2023-04-17T14:28:32.867Z,16.63
2023-04-17T14:31:01.335Z,10.73
2023-04-17T14:33:29.594Z,8.85
2023-04-17T14:35:58.163Z,8.57
2023-04-17T14:38:26.896Z,18.13
2023-04-17T14:40:55.267Z,17.38
2023-04-17T14:43:23.484Z,11.60
2023-04-17T14:45:51.732Z,13.00
2023-04-17T14:48:20.646Z,12.25
2023-04-17T14:50:48.968Z,13.30
2023-04-17T14:53:18.340Z,14.75
2023-04-17T14:55:47.982Z,7.63
2023-04-17T14:58:16.591Z,11.55
2023-04-17T15:00:44.989Z,8.98
2023-04-17T15:03:13.436Z,9.63
2023-04-17T15:05:41.789Z,9.23
2023-04-17T15:08:10.089Z,19.73
2023-04-17T15:10:50.382Z,14.75
2023-04-17T15:13:20.156Z,12.60
2023-04-17T15:15:48.294Z,12.55
2023-04-17T15:18:16.581Z,10.00
2023-04-17T15:20:44.884Z,8.27
2023-04-17T15:23:13.669Z,10.32
2023-04-17T15:25:41.902Z,9.77
2023-04-17T15:28:10.416Z,9.55
2023-04-17T15:30:38.586Z,25.38
2023-04-17T15:33:09.253Z,14.25
2023-04-17T15:35:39.333Z,19.10
2023-04-17T15:38:08.227Z,13.23
2023-04-17T15:40:36.565Z,26.00
2023-04-17T15:43:05.025Z,25.38
2023-04-17T15:45:33.284Z,11.20
2023-04-17T15:48:01.672Z,10.30
2023-04-17T15:50:30.367Z,7.90
2023-04-17T15:52:58.579Z,9.48
2023-04-17T15:55:26.909Z,8.88
2023-04-17T15:57:55.588Z,9.45
2023-04-17T16:00:23.755Z,23.08
2023-04-17T16:02:52.576Z,8.50
2023-04-17T16:05:21.724Z,16.52
2023-04-17T16:07:49.931Z,15.25
2023-04-17T16:10:18.432Z,9.32
2023-04-17T16:12:47.286Z,11.52
2023-04-17T16:15:18.861Z,10.27
2023-04-17T16:20:15.100Z,7.90
2023-04-17T16:22:43.473Z,8.07
2023-04-17T16:25:11.592Z,8.27
2023-04-17T16:27:39.929Z,8.57
2023-04-17T16:30:09.440Z,8.18
2023-04-17T16:32:40.163Z,7.15
2023-04-17T16:35:08.851Z,11.43
2023-04-17T16:37:37.022Z,6.93
2023-04-17T16:40:05.702Z,6.93
2023-04-17T16:42:34.279Z,21.38
2023-04-17T16:45:02.416Z,12.30
2023-04-17T16:47:31.129Z,8.13
2023-04-17T16:49:59.592Z,11.00
2023-04-17T16:52:27.847Z,7.35
2023-04-17T16:54:56.113Z,8.48
2023-04-17T16:57:24.255Z,9.82
2023-04-17T16:59:52.448Z,9.30
2023-04-17T17:02:20.833Z,8.00
2023-04-17T17:04:50.032Z,10.43
2023-04-17T17:07:18.154Z,7.65
2023-04-17T17:09:46.542Z,10.23
2023-04-17T17:12:14.665Z,9.80
2023-04-17T17:14:42.829Z,13.18
2023-04-17T17:17:10.974Z,10.57
2023-04-17T17:19:41.909Z,12.00
2023-04-17T17:22:10.165Z,11.63
2023-04-17T17:24:38.406Z,18.17
2023-04-17T17:27:06.713Z,9.95
2023-04-17T17:29:35.029Z,80.15
2023-04-17T17:32:03.461Z,36.53
2023-04-17T17:34:32.595Z,26.55
2023-04-17T17:37:00.827Z,19.58
2023-04-17T17:39:29.185Z,14.80
2023-04-17T17:41:57.269Z,20.45
2023-04-17T17:44:25.502Z,12.52
2023-04-17T17:46:53.749Z,12.75
2023-04-17T17:49:23.323Z,12.07
2023-04-17T17:51:51.477Z,16.83
2023-04-17T17:54:19.874Z,13.35
2023-04-17T17:56:47.952Z,15.82
2023-04-17T17:59:16.280Z,12.48
2023-04-17T18:01:44.527Z,11.57
2023-04-17T18:04:13.374Z,9.40
2023-04-17T18:06:41.803Z,9.43
2023-04-17T18:09:10.150Z,10.25
2023-04-17T18:11:38.576Z,10.50
2023-04-17T18:14:06.825Z,20.40
2023-04-17T18:16:35.097Z,17.20
2023-04-17T18:19:03.764Z,14.77
2023-04-17T18:21:32.580Z,12.95
2023-04-17T18:24:01.293Z,17.77
2023-04-17T18:26:29.692Z,24.73
2023-04-17T18:28:57.886Z,23.60
2023-04-17T18:31:26.411Z,20.10
2023-04-17T18:33:55.057Z,18.73
2023-04-17T18:36:23.152Z,17.52
2023-04-17T18:38:51.468Z,20.10
2023-04-17T18:41:19.717Z,21.00
2023-04-17T18:43:48.314Z,20.52
2023-04-17T18:46:16.529Z,20.05
2023-04-17T18:48:44.789Z,22.85
2023-04-17T18:51:13.820Z,23.45
2023-04-17T18:53:42.129Z,19.88
2023-04-17T18:56:10.223Z,20.88
2023-04-17T18:58:38.450Z,30.77
2023-04-17T19:01:07.404Z,30.25
2023-04-17T19:03:35.568Z,23.48
2023-04-17T19:06:04.083Z,27.58
2023-04-17T19:08:32.361Z,26.35
2023-04-17T19:11:00.546Z,24.05
2023-04-17T19:13:29.030Z,25.05
2023-04-17T19:15:57.239Z,20.77
2023-04-17T19:18:25.573Z,21.52
2023-04-17T19:20:53.983Z,23.45
2023-04-17T19:23:22.106Z,27.08
2023-04-17T19:25:53.764Z,35.10
2023-04-17T19:28:22.992Z,43.63
2023-04-17T19:30:51.076Z,50.00
2023-04-17T19:33:19.382Z,40.95
2023-04-17T19:35:47.550Z,34.20
2023-04-17T19:38:17.345Z,39.45
2023-04-17T19:41:11.097Z,43.90
2023-04-17T19:43:39.403Z,70.03
2023-04-17T19:46:07.518Z,56.05
2023-04-17T19:48:36.304Z,50.22
2023-04-17T19:51:06.782Z,48.05
2023-04-17T19:53:36.747Z,44.92
2023-04-17T19:56:08.342Z,50.22
2023-04-17T19:58:38.096Z,49.65
2023-04-17T20:01:06.568Z,77.32
2023-04-17T20:03:35.034Z,70.88
2023-04-17T20:06:06.596Z,67.30
2023-04-17T20:08:35.118Z,56.85
2023-04-17T20:11:03.359Z,50.70
2023-04-17T20:13:31.621Z,52.65
2023-04-17T20:16:00.030Z,48.38
2023-04-17T20:18:28.510Z,46.95
2023-04-17T20:20:56.794Z,35.53
2023-04-17T20:23:27.592Z,27.40
2023-04-17T20:25:56.076Z,27.10
2023-04-17T20:28:24.203Z,33.28
2023-04-17T20:30:52.442Z,40.50
2023-04-17T20:33:20.840Z,48.75
2023-04-17T20:35:49.247Z,61.10
2023-04-17T20:38:17.387Z,75.35
2023-04-17T20:40:45.690Z,56.83
2023-04-17T20:43:13.859Z,53.95
2023-04-17T20:45:42.015Z,44.17
2023-04-17T20:48:10.305Z,41.90
2023-04-17T20:50:38.598Z,45.17
2023-04-17T20:53:06.669Z,33.22
2023-04-17T20:55:36.776Z,27.55
2023-04-17T20:58:05.155Z,28.63
2023-04-17T21:00:33.813Z,33.88
2023-04-17T21:03:02.779Z,33.47
2023-04-17T21:05:31.228Z,30.98
2023-04-17T21:07:59.440Z,32.90
2023-04-17T21:10:27.687Z,31.00
2023-04-17T21:12:55.898Z,26.88
2023-04-17T21:15:24.309Z,26.85
2023-04-17T21:17:52.562Z,31.25
2023-04-17T21:20:20.926Z,39.47
2023-04-17T21:22:49.606Z,39.72
2023-04-17T21:25:17.996Z,33.25
2023-04-17T21:27:46.214Z,30.00
2023-04-17T21:30:14.705Z,31.52
2023-04-17T21:32:43.172Z,36.53
2023-04-17T21:35:11.280Z,35.30
2023-04-17T21:37:39.544Z,30.17
2023-04-17T21:40:08.486Z,27.05
2023-04-17T21:42:36.752Z,26.30
2023-04-17T21:45:05.286Z,26.60
2023-04-17T21:47:34.151Z,23.80
2023-04-17T21:50:02.367Z,27.70
2023-04-17T21:52:30.552Z,28.13
2023-04-17T21:54:58.740Z,26.77
2023-04-17T21:57:27.023Z,27.10
2023-04-17T21:59:55.225Z,29.80
2023-04-17T22:02:23.561Z,33.25
2023-04-17T22:04:52.310Z,30.73
2023-04-17T22:07:20.622Z,28.73
2023-04-17T22:09:49.170Z,27.65
2023-04-17T22:12:17.990Z,24.67
2023-04-17T22:14:46.215Z,22.60
2023-04-17T22:17:14.891Z,24.98
2023-04-17T22:19:43.608Z,19.90
2023-04-17T22:22:11.947Z,17.70
2023-04-17T22:24:41.501Z,15.02
2023-04-17T22:27:10.081Z,25.77
2023-04-17T22:29:38.176Z,28.67
2023-04-17T22:32:06.523Z,28.40
2023-04-17T22:34:34.750Z,25.30
2023-04-17T22:37:03.202Z,19.75
2023-04-17T22:39:31.260Z,15.82
2023-04-17T22:41:59.634Z,15.60
2023-04-17T22:44:27.722Z,14.60
2023-04-17T22:46:56.096Z,15.63
2023-04-17T22:49:24.376Z,16.48
2023-04-17T22:51:53.289Z,15.82
2023-04-17T22:54:23.127Z,16.48
2023-04-17T22:56:51.943Z,16.35
2023-04-17T22:59:20.107Z,16.52
2023-04-17T23:01:48.363Z,19.20
2023-04-17T23:04:16.615Z,21.20
2023-04-17T23:06:44.962Z,20.27
2023-04-17T23:09:13.117Z,19.13
2023-04-17T23:11:41.605Z,21.83
2023-04-17T23:14:09.650Z,26.05
2023-04-17T23:16:37.959Z,29.23
2023-04-17T23:19:06.129Z,30.40
2023-04-17T23:21:36.544Z,27.70
2023-04-17T23:24:04.913Z,24.95
2023-04-17T23:26:33.063Z,22.65
2023-04-17T23:29:01.236Z,27.20
2023-04-17T23:31:29.356Z,31.45
2023-04-17T23:33:57.766Z,39.97
2023-04-17T23:36:25.803Z,57.47
2023-04-17T23:38:54.000Z,66.25
2023-04-17T23:41:22.268Z,62.08
2023-04-17T23:43:50.545Z,62.13
2023-04-17T23:46:18.635Z,57.08
2023-04-17T23:48:46.943Z,55.70
2023-04-17T23:51:15.013Z,57.00
2023-04-17T23:53:43.401Z,60.15
2023-04-17T23:56:11.552Z,61.67
2023-04-17T23:58:39.777Z,62.30
